createdAt,value
2019-03-23T00:36:52.044Z,93.70
2019-03-23T00:42:15.222Z,94.40
2019-03-23T00:44:50.524Z,93.80
2019-03-23T01:20:49.567Z,94.80
2019-03-23T01:23:15.212Z,95.10
2019-03-23T01:25:45.868Z,95.50
2019-03-23T01:28:15.384Z,95.60
2019-03-23T01:30:44.158Z,95.70
2019-03-23T01:33:15.362Z,95.70
2019-03-23T01:35:44.134Z,96.00
2019-03-23T01:38:12.923Z,96.20
2019-03-23T01:40:43.224Z,96.00
2019-03-23T01:43:12.071Z,95.90
2019-03-23T01:45:40.735Z,96.20
2019-03-23T01:48:09.649Z,96.00
2019-03-23T01:59:24.358Z,95.80
2019-03-23T02:04:55.594Z,96.50
2019-03-23T02:07:27.527Z,96.10
2019-03-23T02:10:00.276Z,96.10
2019-03-23T02:27:51.239Z,99.30
2019-03-23T02:30:38.232Z,98.20
2019-03-23T02:38:59.809Z,98.80
2019-03-23T02:41:40.982Z,98.40
2019-03-23T02:55:26.483Z,97.90
2019-03-23T02:58:01.163Z,98.70
2019-03-23T03:00:34.239Z,98.40
2019-03-23T03:03:11.838Z,99.60
2019-03-23T03:06:00.152Z,99.20
2019-03-23T03:08:32.847Z,99.10
2019-03-23T03:16:46.940Z,99.30
2019-03-23T03:19:36.425Z,99.20
2019-03-23T03:22:10.437Z,99.30
2019-03-23T03:24:43.862Z,99.20
2019-03-23T03:27:30.638Z,99.40
2019-03-23T03:30:10.367Z,99.20
2019-03-23T03:32:48.081Z,99.40
2019-03-23T03:35:19.158Z,99.60
2019-03-23T03:43:42.506Z,99.40
2019-03-23T03:46:29.312Z,99.30
2019-03-23T03:49:12.245Z,99.20
2019-03-23T03:51:36.123Z,99.90
2019-03-23T03:54:09.744Z,99.90
2019-03-23T03:56:45.043Z,99.90
2019-03-23T03:59:16.569Z,99.60
2019-03-23T04:01:48.140Z,98.60
2019-03-23T04:04:23.505Z,99.80
2019-03-23T04:06:54.236Z,99.90
2019-03-23T04:09:27.275Z,99.90
2019-03-23T04:11:58.733Z,99.90
2019-03-23T04:14:33.439Z,99.90
2019-03-23T04:17:11.783Z,99.90
2019-03-23T04:19:42.041Z,99.90
2019-03-23T04:22:23.836Z,99.90
2019-03-23T04:24:54.773Z,99.90
2019-03-23T04:27:27.568Z,99.90
2019-03-23T04:29:59.762Z,99.90
2019-03-23T04:32:31.380Z,99.90
2019-03-23T04:35:02.293Z,99.90
2019-03-23T04:37:33.705Z,99.90
2019-03-23T04:40:06.893Z,99.90
2019-03-23T04:42:40.646Z,99.90
2019-03-23T04:45:12.752Z,99.90
2019-03-23T04:47:46.284Z,99.90
2019-03-23T04:50:24.963Z,99.90
2019-03-23T04:52:59.764Z,99.90
2019-03-23T04:55:34.278Z,99.90
2019-03-23T04:58:14.676Z,99.90
2019-03-23T05:00:43.457Z,99.90
2019-03-23T05:03:13.101Z,99.90
2019-03-23T05:05:41.894Z,99.90
2019-03-23T05:08:10.595Z,99.90
2019-03-23T05:10:39.780Z,99.90
2019-03-23T05:13:09.189Z,99.90
2019-03-23T05:15:37.971Z,99.90
2019-03-23T05:18:07.179Z,99.90
2019-03-23T05:20:36.056Z,99.90
2019-03-23T05:23:04.818Z,99.90
2019-03-23T05:28:11.338Z,99.90
2019-03-23T05:33:37.444Z,99.90
2019-03-23T05:36:15.411Z,99.90
2019-03-23T05:38:55.681Z,99.90
2019-03-23T05:44:19.564Z,99.90
2019-03-23T05:46:54.230Z,99.90
2019-03-23T05:49:46.087Z,99.90
2019-03-23T05:55:06.835Z,99.90
2019-03-23T05:57:35.390Z,99.90
2019-03-23T06:00:06.476Z,99.90
2019-03-23T06:02:35.049Z,99.60
2019-03-23T06:05:04.627Z,99.20
2019-03-23T06:07:33.203Z,99.00
2019-03-23T06:10:01.845Z,98.80
2019-03-23T06:12:30.635Z,98.50
2019-03-23T06:14:59.202Z,98.40
2019-03-23T06:17:27.753Z,98.50
2019-03-23T06:19:56.302Z,98.40
2019-03-23T06:22:24.883Z,98.30
2019-03-23T06:24:53.426Z,98.30
2019-03-23T06:27:22.335Z,97.80
2019-03-23T06:29:50.871Z,97.80
2019-03-23T06:32:38.888Z,98.10
2019-03-23T06:35:07.526Z,98.60
2019-03-23T06:37:36.075Z,98.00
2019-03-23T06:40:10.450Z,98.00
2019-03-23T06:42:38.919Z,97.60
2019-03-23T06:45:10.171Z,97.00
2019-03-23T06:47:38.734Z,96.70
2019-03-23T06:50:09.788Z,96.40
2019-03-23T06:52:39.891Z,95.20
2019-03-23T06:55:09.515Z,93.80
2019-03-23T06:57:38.142Z,92.60
2019-03-23T07:00:30.319Z,88.20
2019-03-23T07:02:58.851Z,83.20
2019-03-23T07:05:27.404Z,74.90
2019-03-23T07:07:55.985Z,72.10
2019-03-23T07:10:24.518Z,68.90
2019-03-23T07:12:53.349Z,65.20
2019-03-23T07:15:21.979Z,63.70
2019-03-23T07:17:50.544Z,61.70
2019-03-23T07:20:19.097Z,56.90
2019-03-23T07:22:47.649Z,54.60
2019-03-23T07:25:16.299Z,53.60
2019-03-23T07:27:45.255Z,51.60
2019-03-23T07:30:18.379Z,52.10
2019-03-23T07:32:47.028Z,52.00
2019-03-23T07:35:15.749Z,51.30
2019-03-23T07:37:44.717Z,51.60
2019-03-23T07:40:14.110Z,51.40
2019-03-23T07:42:42.719Z,50.40
2019-03-23T07:45:13.555Z,49.70
2019-03-23T07:47:42.035Z,50.50
2019-03-23T07:50:12.946Z,48.80
2019-03-23T07:52:41.600Z,46.50
2019-03-23T07:55:31.011Z,45.10
2019-03-23T07:57:59.583Z,43.80
2019-03-23T08:00:28.315Z,45.20
2019-03-23T08:02:56.935Z,43.00
2019-03-23T08:05:25.848Z,41.20
2019-03-23T08:07:54.472Z,40.80
2019-03-23T08:10:31.555Z,40.90
2019-03-23T08:13:00.197Z,42.20
2019-03-23T08:15:29.387Z,40.50
2019-03-23T08:17:58.108Z,40.80
2019-03-23T08:20:26.733Z,38.70
2019-03-23T08:22:55.544Z,38.70
2019-03-23T08:25:24.127Z,41.60
2019-03-23T08:27:52.752Z,41.60
2019-03-23T08:30:21.291Z,39.30
2019-03-23T08:32:49.865Z,41.10
2019-03-23T08:35:22.344Z,39.20
2019-03-23T08:37:50.935Z,40.50
2019-03-23T08:40:20.121Z,39.60
2019-03-23T08:42:48.686Z,41.90
2019-03-23T08:45:17.266Z,42.00
2019-03-23T08:47:45.814Z,42.30
2019-03-23T08:50:14.491Z,42.70
2019-03-23T08:52:43.067Z,42.60
2019-03-23T08:55:11.761Z,43.50
2019-03-23T08:57:41.421Z,42.60
2019-03-23T09:00:11.203Z,45.50
2019-03-23T09:02:39.933Z,43.80
2019-03-23T09:05:08.720Z,45.10
2019-03-23T09:07:37.289Z,45.30
2019-03-23T09:10:10.187Z,46.60
2019-03-23T09:12:38.747Z,47.80
2019-03-23T09:15:09.112Z,47.50
2019-03-23T09:17:37.707Z,48.30
2019-03-23T09:20:09.056Z,49.60
2019-03-23T09:22:37.658Z,49.30
2019-03-23T09:25:07.022Z,51.70
2019-03-23T09:27:36.002Z,49.40
2019-03-23T09:30:10.205Z,50.30
2019-03-23T09:32:38.762Z,50.40
2019-03-23T09:35:07.662Z,51.20
2019-03-23T09:37:38.193Z,52.40
2019-03-23T09:40:10.953Z,55.00
2019-03-23T09:42:38.063Z,54.50
2019-03-23T09:45:08.223Z,54.70
2019-03-23T09:47:37.011Z,53.30
2019-03-23T09:50:08.153Z,50.70
2019-03-23T09:52:36.762Z,50.40
2019-03-23T09:55:06.851Z,50.70
2019-03-23T09:57:35.779Z,50.90
2019-03-23T10:00:07.531Z,51.10
2019-03-23T10:02:36.063Z,50.80
2019-03-23T10:05:06.752Z,52.80
2019-03-23T10:07:35.414Z,53.70
2019-03-23T10:10:04.907Z,51.80
2019-03-23T10:12:33.527Z,52.70
2019-03-23T10:15:03.182Z,49.90
2019-03-23T10:17:31.743Z,50.50
2019-03-23T10:20:00.309Z,48.80
2019-03-23T10:22:28.907Z,51.20
2019-03-23T10:24:57.392Z,52.40
2019-03-23T10:27:25.988Z,51.70
2019-03-23T10:29:54.553Z,51.80
2019-03-23T10:32:23.107Z,50.30
2019-03-23T10:34:51.773Z,52.40
2019-03-23T10:37:20.319Z,52.70
2019-03-23T10:39:48.913Z,52.50
2019-03-23T10:42:17.450Z,53.30
2019-03-23T10:44:46.327Z,53.90
2019-03-23T10:47:14.984Z,55.80
2019-03-23T10:49:43.526Z,55.80
2019-03-23T10:52:12.382Z,56.30
2019-03-23T10:54:41.270Z,57.40
2019-03-23T10:57:10.023Z,56.50
2019-03-23T10:59:38.714Z,56.90
2019-03-23T11:02:10.711Z,57.70
2019-03-23T11:04:39.528Z,57.80
2019-03-23T11:07:08.076Z,58.00
2019-03-23T11:09:36.669Z,59.00
2019-03-23T11:12:05.340Z,58.50
2019-03-23T11:14:33.893Z,58.50
2019-03-23T11:17:02.550Z,58.50
2019-03-23T11:19:31.106Z,58.50
2019-03-23T11:21:59.980Z,59.30
2019-03-23T11:24:28.573Z,58.10
2019-03-23T11:26:57.174Z,57.10
2019-03-23T11:29:25.788Z,57.00
2019-03-23T11:31:55.998Z,59.20
2019-03-23T11:34:44.015Z,59.70
2019-03-23T11:37:11.874Z,59.50
2019-03-23T11:39:40.388Z,59.80
2019-03-23T11:42:09.322Z,62.10
2019-03-23T11:44:37.821Z,62.40
2019-03-23T11:47:06.519Z,60.50
2019-03-23T11:49:35.483Z,61.90
2019-03-23T11:52:04.130Z,60.00
2019-03-23T11:54:32.692Z,61.90
2019-03-23T11:57:01.511Z,60.60
2019-03-23T11:59:30.059Z,61.70
2019-03-23T12:01:58.660Z,62.90
2019-03-23T12:04:27.288Z,63.40
2019-03-23T12:06:55.955Z,64.30
2019-03-23T12:09:24.571Z,63.10
2019-03-23T12:11:53.243Z,65.30
2019-03-23T12:14:21.811Z,64.20
2019-03-23T12:16:50.393Z,64.50
2019-03-23T12:19:18.990Z,64.50
2019-03-23T12:21:47.592Z,64.90
2019-03-23T12:24:16.114Z,65.80
2019-03-23T12:26:44.614Z,65.80
2019-03-23T12:29:13.238Z,66.10
2019-03-23T12:31:41.904Z,67.10
2019-03-23T12:34:10.457Z,66.40
2019-03-23T12:36:39.023Z,66.20
2019-03-23T12:39:07.659Z,65.70
2019-03-23T12:41:36.239Z,68.80
2019-03-23T12:44:04.890Z,67.40
2019-03-23T12:46:33.455Z,67.40
2019-03-23T12:49:02.287Z,67.40
2019-03-23T12:51:32.333Z,69.30
2019-03-23T12:54:00.954Z,70.80
2019-03-23T12:56:29.537Z,68.90
2019-03-23T12:58:58.160Z,68.70
2019-03-23T13:01:26.743Z,69.00
2019-03-23T13:03:55.300Z,70.40
2019-03-23T13:06:23.850Z,70.60
2019-03-23T13:08:52.427Z,68.60
2019-03-23T13:11:24.661Z,70.00
2019-03-23T13:13:52.210Z,71.00
2019-03-23T13:16:20.790Z,70.80
2019-03-23T13:18:49.343Z,71.50
2019-03-23T13:21:17.901Z,71.30
2019-03-23T13:23:46.481Z,70.30
2019-03-23T13:26:15.328Z,70.50
2019-03-23T13:28:43.883Z,71.00
2019-03-23T13:31:12.438Z,71.10
2019-03-23T13:33:41.021Z,71.30
2019-03-23T13:36:09.994Z,70.50
2019-03-23T13:38:38.615Z,70.80
2019-03-23T13:41:07.207Z,70.90
2019-03-23T13:43:35.763Z,70.20
2019-03-23T13:46:04.314Z,69.70
2019-03-23T13:48:32.824Z,70.20
2019-03-23T13:51:01.446Z,70.00
2019-03-23T13:53:30.050Z,70.40
2019-03-23T13:55:59.075Z,69.10
2019-03-23T13:58:27.622Z,69.00
2019-03-23T14:00:56.259Z,67.90
2019-03-23T14:03:24.906Z,70.10
2019-03-23T14:05:53.512Z,67.30
2019-03-23T14:08:22.142Z,65.70
2019-03-23T14:10:50.717Z,65.50
2019-03-23T14:13:19.275Z,66.60
2019-03-23T14:15:47.892Z,65.70
2019-03-23T14:18:17.476Z,65.50
2019-03-23T14:20:46.303Z,66.20
2019-03-23T14:23:14.843Z,65.70
2019-03-23T14:25:43.467Z,65.40
2019-03-23T14:28:12.049Z,63.70
2019-03-23T14:30:40.607Z,64.20
2019-03-23T14:33:09.212Z,65.30
2019-03-23T14:35:37.762Z,66.20
2019-03-23T14:38:06.307Z,65.40
2019-03-23T14:40:34.883Z,66.40
2019-03-23T14:43:03.448Z,65.90
2019-03-23T14:45:32.079Z,63.30
2019-03-23T14:48:00.663Z,65.30
2019-03-23T14:50:29.291Z,65.00
2019-03-23T14:52:57.832Z,64.90
2019-03-23T14:55:26.486Z,64.90
2019-03-23T14:57:55.354Z,63.50
2019-03-23T15:00:32.185Z,64.50
2019-03-23T15:03:00.809Z,64.80
2019-03-23T15:05:29.434Z,65.10
2019-03-23T15:07:58.199Z,65.00
2019-03-23T15:10:27.419Z,64.80
2019-03-23T15:12:56.466Z,64.90
2019-03-23T15:15:25.096Z,65.90
2019-03-23T15:17:54.500Z,66.60
2019-03-23T15:20:23.119Z,66.20
2019-03-23T15:22:52.034Z,67.10
2019-03-23T15:25:20.579Z,66.40
2019-03-23T15:27:49.126Z,66.90
2019-03-23T15:30:17.763Z,66.50
2019-03-23T15:32:46.370Z,67.10
2019-03-23T15:35:15.003Z,66.40
2019-03-23T15:37:43.700Z,66.50
2019-03-23T15:40:12.740Z,67.20
2019-03-23T15:42:41.733Z,67.20
2019-03-23T15:45:10.919Z,67.10
2019-03-23T15:47:39.499Z,67.70
2019-03-23T15:50:09.312Z,67.50
2019-03-23T15:52:38.037Z,67.60
2019-03-23T15:55:07.055Z,69.10
2019-03-23T15:57:36.697Z,69.10
2019-03-23T16:00:08.309Z,68.90
2019-03-23T16:02:36.938Z,69.30
2019-03-23T16:05:07.259Z,69.60
2019-03-23T16:07:36.335Z,69.80
2019-03-23T16:10:07.243Z,69.60
2019-03-23T16:12:37.786Z,70.40
2019-03-23T16:15:11.455Z,70.50
2019-03-23T16:17:40.086Z,70.50
2019-03-23T16:20:10.864Z,70.60
2019-03-23T16:22:39.511Z,71.20
2019-03-23T16:25:11.912Z,71.40
2019-03-23T16:27:40.466Z,71.50
2019-03-23T16:30:11.382Z,71.90
2019-03-23T16:32:39.951Z,71.30
2019-03-23T16:35:09.139Z,71.50
2019-03-23T16:37:37.705Z,72.20
2019-03-23T16:40:08.615Z,72.40
2019-03-23T16:42:44.549Z,72.10
2019-03-23T16:45:09.620Z,72.70
2019-03-23T16:47:38.309Z,73.20
2019-03-23T16:50:07.904Z,73.00
2019-03-23T16:52:38.214Z,72.70
2019-03-23T16:55:11.655Z,72.80
2019-03-23T16:57:40.559Z,73.10
2019-03-23T17:00:11.745Z,73.40
2019-03-23T17:02:40.359Z,74.20
2019-03-23T17:05:09.376Z,74.30
2019-03-23T17:07:37.929Z,75.00
2019-03-23T17:10:06.991Z,74.90
2019-03-23T17:12:35.731Z,75.10
2019-03-23T17:15:09.071Z,75.50
2019-03-23T17:17:37.954Z,75.90
2019-03-23T17:20:06.758Z,76.10
2019-03-23T17:22:35.475Z,76.50
2019-03-23T17:25:06.570Z,76.60
2019-03-23T17:27:35.104Z,77.20
2019-03-23T17:30:05.392Z,77.50
2019-03-23T17:32:34.179Z,78.00
2019-03-23T17:35:03.003Z,77.90
2019-03-23T17:37:31.562Z,78.30
2019-03-23T17:40:00.360Z,78.70
2019-03-23T17:42:28.908Z,79.00
2019-03-23T17:44:57.827Z,79.10
2019-03-23T17:47:26.340Z,79.20
2019-03-23T17:49:57.218Z,79.50
2019-03-23T17:52:25.570Z,79.50
2019-03-23T17:54:54.189Z,80.50
2019-03-23T17:57:23.218Z,80.40
2019-03-23T17:59:52.116Z,80.80
2019-03-23T18:02:20.978Z,81.50
2019-03-23T18:04:49.560Z,81.70
2019-03-23T18:07:18.232Z,82.00
2019-03-23T20:01:18.137Z,83.50
2019-03-23T23:40:58.553Z,91.60
2019-03-23T23:43:29.500Z,91.70
2019-03-23T23:46:05.737Z,92.40
2019-03-23T23:48:37.670Z,91.90
2019-03-23T23:51:13.685Z,92.00
